Time;durP1;ratioP1;P1;durP2;ratioP2;P2;SDS_P1;SDS_P2;PMS_P1;PMS_P2;Temp;Humidity;BMP_temperature;BMP_pressure;BME280_temperature;BME280_humidity;BME280_pressure;Samples;Min_cycle;Max_cycle;Signal;HPM_P1;HPM_P2
2021/01/19 00:00:13;;;;;;;15.68;6.75;;;6.70;99.90;;;;;;4833861;29;20040;-80
2021/01/19 00:02:39;;;;;;;17.60;6.90;;;6.70;99.90;;;;;;4835686;29;20030;-82
2021/01/19 00:05:06;;;;;;;17.83;6.28;;;6.60;99.90;;;;;;4852306;29;20041;-81
2021/01/19 00:07:32;;;;;;;15.40;6.10;;;6.60;99.90;;;;;;4849156;29;20034;-80
2021/01/19 00:09:58;;;;;;;20.75;5.88;;;6.60;99.90;;;;;;4862613;29;20022;-78
2021/01/19 00:12:24;;;;;;;17.38;5.28;;;6.60;99.90;;;;;;4849601;29;20030;-79
2021/01/19 00:14:54;;;;;;;17.10;5.78;;;6.60;99.90;;;;;;4863772;29;20079;-82
2021/01/19 00:17:20;;;;;;;15.77;5.20;;;6.60;99.90;;;;;;4838129;29;20037;-77
2021/01/19 00:19:45;;;;;;;15.55;5.00;;;6.60;99.90;;;;;;4859961;29;20026;-77
2021/01/19 00:22:11;;;;;;;11.77;4.40;;;6.50;99.90;;;;;;4847670;29;20087;-78
2021/01/19 00:24:37;;;;;;;21.27;6.38;;;6.60;99.90;;;;;;4843326;29;20082;-78
2021/01/19 00:27:03;;;;;;;22.80;4.47;;;6.50;99.90;;;;;;4847557;29;20411;-79
2021/01/19 00:29:29;;;;;;;10.82;3.70;;;6.50;99.90;;;;;;4842903;29;20402;-78
2021/01/19 00:31:55;;;;;;;10.43;3.53;;;6.50;99.90;;;;;;4843898;29;20128;-79
2021/01/19 00:34:21;;;;;;;13.02;3.28;;;6.50;99.90;;;;;;4865687;29;20132;-77
2021/01/19 00:36:48;;;;;;;12.55;3.42;;;6.50;99.90;;;;;;4847201;29;20037;-78
2021/01/19 00:39:14;;;;;;;16.67;3.10;;;6.50;99.90;;;;;;4843847;29;20512;-79
2021/01/19 00:41:39;;;;;;;10.23;3.42;;;6.50;99.90;;;;;;4858423;29;20054;-79
2021/01/19 00:44:06;;;;;;;16.98;3.03;;;6.40;99.90;;;;;;4845670;29;20113;-76
2021/01/19 00:46:32;;;;;;;10.05;2.58;;;6.40;99.90;;;;;;4843508;29;20029;-79
2021/01/19 00:48:58;;;;;;;15.07;3.08;;;6.40;99.90;;;;;;4858811;29;20106;-79
2021/01/19 00:51:35;;;;;;;13.75;3.83;;;6.40;99.90;;;;;;4843327;29;20029;-78
2021/01/19 00:54:05;;;;;;;9.95;2.42;;;6.40;99.90;;;;;;4843895;29;20050;-78
2021/01/19 00:56:42;;;;;;;10.48;2.60;;;6.40;99.90;;;;;;4861330;29;20021;-78
2021/01/19 00:59:12;;;;;;;11.73;3.22;;;6.30;99.90;;;;;;4860030;29;20050;-78
2021/01/19 01:01:46;;;;;;;12.52;2.78;;;6.30;99.90;;;;;;4845648;29;20037;-77
2021/01/19 01:04:12;;;;;;;15.73;3.38;;;6.30;99.90;;;;;;4857516;29;20098;-78
2021/01/19 01:06:38;;;;;;;10.77;3.85;;;6.30;99.90;;;;;;4844596;29;20429;-77
2021/01/19 01:09:04;;;;;;;12.13;2.42;;;6.20;99.90;;;;;;4844528;29;20041;-79
2021/01/19 01:11:42;;;;;;;9.80;2.53;;;6.20;99.90;;;;;;4857400;29;20029;-77
2021/01/19 01:14:08;;;;;;;15.98;3.38;;;6.30;99.90;;;;;;4841211;29;20063;-77
2021/01/19 01:16:35;;;;;;;7.30;2.22;;;6.30;99.90;;;;;;4856777;29;20551;-77
2021/01/19 01:19:01;;;;;;;11.63;2.38;;;6.20;99.90;;;;;;4842749;29;20479;-78
2021/01/19 01:21:27;;;;;;;17.75;2.47;;;6.20;99.90;;;;;;4857015;29;20033;-78
2021/01/19 01:23:52;;;;;;;13.43;3.42;;;6.20;99.90;;;;;;4856637;29;20030;-78
2021/01/19 01:26:23;;;;;;;12.65;2.22;;;6.30;99.90;;;;;;4856852;29;20030;-77
2021/01/19 01:28:48;;;;;;;9.98;2.28;;;6.30;99.90;;;;;;4842011;29;20488;-78
2021/01/19 01:31:21;;;;;;;11.15;2.45;;;6.30;99.90;;;;;;4853101;29;20167;-77
2021/01/19 01:33:47;;;;;;;8.00;2.17;;;6.40;99.90;;;;;;4853222;29;20033;-79
2021/01/19 01:36:13;;;;;;;7.43;2.15;;;6.40;99.90;;;;;;4856814;29;20033;-80
2021/01/19 01:38:38;;;;;;;6.50;3.10;;;6.40;99.90;;;;;;4842470;29;20030;-79
2021/01/19 01:41:15;;;;;;;12.82;2.53;;;6.40;99.90;;;;;;4856752;29;20034;-78
2021/01/19 01:43:41;;;;;;;13.35;2.60;;;6.40;99.90;;;;;;4840921;29;20113;-78
2021/01/19 01:46:10;;;;;;;11.88;2.42;;;6.40;99.90;;;;;;4856520;29;20554;-78
2021/01/19 01:48:38;;;;;;;15.98;2.42;;;6.40;99.90;;;;;;4855821;29;20073;-77
2021/01/19 01:51:04;;;;;;;11.27;2.00;;;6.30;99.90;;;;;;4842483;29;20114;-80
2021/01/19 01:53:29;;;;;;;8.77;2.30;;;6.20;99.90;;;;;;4841667;29;20057;-75
2021/01/19 01:55:55;;;;;;;5.15;2.05;;;6.20;99.90;;;;;;4842235;29;20510;-78
2021/01/19 01:58:21;;;;;;;14.02;2.58;;;6.20;99.90;;;;;;4841903;29;20082;-78
2021/01/19 02:00:50;;;;;;;12.65;2.60;;;6.20;99.90;;;;;;4843911;29;20028;-79
2021/01/19 02:03:15;;;;;;;12.15;3.90;;;6.20;99.90;;;;;;4857004;29;20321;-78
2021/01/19 02:05:41;;;;;;;17.17;2.60;;;6.20;99.90;;;;;;4844397;29;20033;-77
2021/01/19 02:08:28;;;;;;;21.08;3.42;;;6.20;99.90;;;;;;4857908;29;20062;-77
2021/01/19 02:11:15;;;;;;;17.42;2.75;;;6.10;99.90;;;;;;4831381;29;20033;-80
2021/01/19 02:13:55;;;;;;;17.43;3.07;;;6.10;99.90;;;;;;4860243;29;20040;-82
2021/01/19 02:16:30;;;;;;;10.88;2.47;;;6.10;99.90;;;;;;4857743;29;20414;-80
2021/01/19 02:19:37;;;;;;;7.65;2.40;;;6.10;99.90;;;;;;4842308;29;20038;-79
2021/01/19 02:22:03;;;;;;;7.53;2.43;;;6.00;99.90;;;;;;4803922;29;20028;-81
2021/01/19 02:24:38;;;;;;;14.77;3.17;;;6.00;99.90;;;;;;4789398;29;20388;-76
2021/01/19 02:27:50;;;;;;;12.80;3.80;;;6.00;99.90;;;;;;4824649;29;20034;-82
2021/01/19 02:30:49;;;;;;;14.63;2.88;;;5.90;99.90;;;;;;4830775;29;20554;-81
2021/01/19 02:33:30;;;;;;;8.00;2.65;;;5.90;99.90;;;;;;4859790;29;20480;-82
2021/01/19 02:36:03;;;;;;;10.20;2.58;;;5.80;99.90;;;;;;4827458;29;20103;-81
2021/01/19 02:38:42;;;;;;;22.17;3.65;;;5.70;99.90;;;;;;4863168;29;20065;-81
2021/01/19 02:41:11;;;;;;;13.85;3.92;;;5.70;99.90;;;;;;4865907;29;20094;-83
2021/01/19 02:43:46;;;;;;;7.70;3.63;;;5.70;99.90;;;;;;4864033;29;20033;-82
2021/01/19 02:46:12;;;;;;;5.75;3.00;;;5.70;99.90;;;;;;4867538;29;20034;-82
2021/01/19 02:48:37;;;;;;;13.05;2.75;;;5.70;99.90;;;;;;4849870;29;20094;-79
2021/01/19 02:51:03;;;;;;;14.55;3.03;;;5.60;99.90;;;;;;4867989;29;20499;-84
2021/01/19 02:53:29;;;;;;;10.82;3.03;;;5.50;99.90;;;;;;4857782;29;20936;-88
2021/01/19 02:55:55;;;;;;;14.18;3.65;;;5.50;99.90;;;;;;4868720;29;20030;-80
2021/01/19 02:58:39;;;;;;;14.60;3.60;;;5.50;99.90;;;;;;4865861;29;20026;-79
2021/01/19 03:01:22;;;;;;;20.50;3.53;;;5.50;99.90;;;;;;4862861;29;20022;-83
2021/01/19 03:03:51;;;;;;;12.82;3.42;;;5.50;99.90;;;;;;4859441;29;20053;-80
2021/01/19 03:06:23;;;;;;;8.80;3.22;;;5.40;99.90;;;;;;4861875;29;20415;-81
2021/01/19 03:08:51;;;;;;;20.85;4.50;;;5.50;99.90;;;;;;4861965;29;20046;-81
2021/01/19 03:11:19;;;;;;;14.02;4.80;;;5.40;99.90;;;;;;4863380;29;20026;-81
2021/01/19 03:13:45;;;;;;;8.52;3.80;;;5.40;99.90;;;;;;4847098;29;20515;-80
2021/01/19 03:16:13;;;;;;;13.48;3.80;;;5.30;99.90;;;;;;4864313;29;20034;-79
2021/01/19 03:18:47;;;;;;;15.52;4.78;;;5.30;99.90;;;;;;4867270;29;20467;-81
2021/01/19 03:21:13;;;;;;;10.05;4.15;;;5.30;99.90;;;;;;4856752;29;20037;-81
2021/01/19 03:23:39;;;;;;;10.95;3.50;;;5.30;99.90;;;;;;4867194;29;20030;-76
2021/01/19 03:26:08;;;;;;;11.07;4.35;;;5.30;99.90;;;;;;4847569;29;20102;-77
2021/01/19 03:28:36;;;;;;;17.17;4.95;;;5.20;99.90;;;;;;4850044;29;20056;-79
2021/01/19 03:31:02;;;;;;;16.52;4.68;;;5.20;99.90;;;;;;4851919;29;20030;-77
2021/01/19 03:33:29;;;;;;;16.17;5.78;;;5.20;99.90;;;;;;4867502;29;20459;-78
2021/01/19 03:35:57;;;;;;;13.65;5.20;;;5.20;99.90;;;;;;4870654;29;20125;-78
2021/01/19 03:38:24;;;;;;;12.40;5.15;;;5.20;99.90;;;;;;4852007;29;20037;-79
2021/01/19 03:40:51;;;;;;;18.63;6.18;;;5.20;99.90;;;;;;4852652;29;20026;-78
2021/01/19 03:43:17;;;;;;;14.93;5.93;;;5.20;99.90;;;;;;4871559;29;20057;-80
2021/01/19 03:45:43;;;;;;;14.25;6.07;;;5.20;99.90;;;;;;4868897;29;20079;-81
2021/01/19 03:48:08;;;;;;;13.93;5.88;;;5.20;99.90;;;;;;4849959;29;20034;-82
2021/01/19 03:50:34;;;;;;;12.35;5.53;;;5.30;99.90;;;;;;4864585;29;20025;-81
2021/01/19 03:53:00;;;;;;;14.38;6.05;;;5.30;99.90;;;;;;4847901;29;20037;-80
2021/01/19 03:55:30;;;;;;;12.75;6.55;;;5.40;99.90;;;;;;4846289;29;20050;-80
2021/01/19 03:57:56;;;;;;;15.07;5.82;;;5.30;99.90;;;;;;4830227;29;20488;-81
2021/01/19 04:00:23;;;;;;;17.17;6.65;;;5.30;99.90;;;;;;4847506;29;20029;-82
2021/01/19 04:02:49;;;;;;;15.52;6.50;;;5.30;99.90;;;;;;4851596;29;20033;-81
2021/01/19 04:05:14;;;;;;;12.07;6.45;;;5.30;99.90;;;;;;4832426;29;20105;-81
2021/01/19 04:07:43;;;;;;;15.52;7.25;;;5.30;99.90;;;;;;4849002;29;20027;-82
2021/01/19 04:10:09;;;;;;;;;;;5.30;99.90;;;;;;4840201;29;20035;-82
2021/01/19 04:12:38;;;;;;;13.77;6.72;;;5.30;99.90;;;;;;4835008;29;19913;-81
2021/01/19 04:15:05;;;;;;;13.45;7.43;;;5.30;99.90;;;;;;4851466;29;20034;-81
2021/01/19 04:17:31;;;;;;;18.60;7.20;;;5.30;99.90;;;;;;4852489;29;20030;-81
2021/01/19 04:19:59;;;;;;;14.40;7.53;;;5.40;99.90;;;;;;4852833;29;20045;-83
2021/01/19 04:22:25;;;;;;;;;;;5.40;99.90;;;;;;4852783;29;20094;-83
2021/01/19 04:24:51;;;;;;;15.88;7.38;;;5.40;99.90;;;;;;4851561;29;19913;-83
2021/01/19 04:27:23;;;;;;;18.08;8.32;;;5.40;99.90;;;;;;4838458;29;20023;-84
2021/01/19 04:30:07;;;;;;;;;;;;;;;;;;;;;
2021/01/19 04:32:34;;;;;;;14.50;8.40;;;5.40;99.90;;;;;;4836160;29;20109;-81
2021/01/19 04:35:00;;;;;;;20.45;9.18;;;5.40;99.90;;;;;;4847718;29;20098;-80
2021/01/19 04:37:28;;;;;;;16.85;8.43;;;5.40;99.90;;;;;;4850931;29;20030;-82
2021/01/19 04:39:55;;;;;;;21.30;9.32;;;5.40;99.90;;;;;;4851670;29;20031;-80
2021/01/19 04:42:24;;;;;;;16.90;8.07;;;5.40;99.90;;;;;;4850034;29;20034;-81
2021/01/19 04:44:53;;;;;;;14.65;8.15;;;5.40;99.90;;;;;;4852310;29;20030;-80
2021/01/19 04:47:20;;;;;;;18.10;8.27;;;5.40;99.90;;;;;;4830366;29;20045;-81
2021/01/19 04:49:47;;;;;;;16.80;8.57;;;5.40;99.90;;;;;;4844353;29;20038;-80
2021/01/19 04:52:15;;;;;;;14.00;8.68;;;5.40;99.90;;;;;;4827696;29;20065;-81
2021/01/19 04:55:16;;;;;;;15.13;7.72;;;5.50;99.90;;;;;;4842211;29;20133;-81
2021/01/19 04:57:42;;;;;;;15.05;8.18;;;5.50;99.90;;;;;;4827384;29;20046;-80
2021/01/19 05:00:14;;;;;;;10.90;7.47;;;5.50;99.90;;;;;;4841115;29;20403;-81
2021/01/19 05:03:02;;;;;;;32.30;8.02;;;5.50;99.90;;;;;;4829743;29;20058;-81
2021/01/19 05:05:47;;;;;;;12.77;7.70;;;5.60;99.90;;;;;;4828076;29;20034;-81
2021/01/19 05:08:18;;;;;;;12.50;7.05;;;5.60;99.90;;;;;;4843164;29;20034;-78
2021/01/19 05:10:57;;;;;;;13.75;6.90;;;5.60;99.90;;;;;;4830144;29;20030;-79
2021/01/19 05:13:37;;;;;;;11.88;7.80;;;5.70;99.90;;;;;;4825537;29;20037;-80
2021/01/19 05:16:05;;;;;;;12.07;8.32;;;5.60;99.90;;;;;;4828544;29;20050;-80
2021/01/19 05:18:31;;;;;;;12.73;7.95;;;5.60;99.90;;;;;;4842045;29;20121;-81
2021/01/19 05:21:00;;;;;;;13.15;7.22;;;5.60;99.90;;;;;;4842360;29;20022;-80
2021/01/19 05:23:27;;;;;;;10.70;7.15;;;5.60;99.90;;;;;;4823682;29;20038;-80
2021/01/19 05:25:58;;;;;;;12.27;7.60;;;5.60;99.90;;;;;;4842512;29;20030;-81
2021/01/19 05:28:39;;;;;;;11.82;7.95;;;5.70;99.90;;;;;;4824377;29;20156;-80
2021/01/19 05:31:27;;;;;;;13.10;7.75;;;5.60;99.90;;;;;;4843430;29;20098;-80
2021/01/19 05:33:53;;;;;;;10.57;7.88;;;5.60;99.90;;;;;;4841544;29;20619;-81
2021/01/19 05:36:20;;;;;;;11.32;7.38;;;5.70;99.90;;;;;;4841107;29;20022;-80
2021/01/19 05:38:51;;;;;;;13.05;7.70;;;5.70;99.90;;;;;;4839994;29;20112;-79
2021/01/19 05:41:32;;;;;;;11.23;7.45;;;5.70;99.90;;;;;;4824659;29;20026;-78
2021/01/19 05:44:14;;;;;;;11.60;6.95;;;5.80;99.90;;;;;;4824478;29;20101;-79
2021/01/19 05:46:48;;;;;;;12.60;8.82;;;5.80;99.90;;;;;;4826394;29;20030;-79
2021/01/19 05:49:30;;;;;;;13.77;7.13;;;5.80;99.90;;;;;;4823804;29;20042;-79
2021/01/19 05:52:10;;;;;;;12.15;8.00;;;5.80;99.90;;;;;;4838287;29;20034;-80
2021/01/19 05:54:43;;;;;;;12.60;7.22;;;5.80;99.90;;;;;;4843015;29;20050;-80
2021/01/19 05:57:11;;;;;;;11.45;6.80;;;5.80;99.90;;;;;;4822270;29;20022;-80
2021/01/19 05:59:45;;;;;;;10.98;7.97;;;5.80;99.90;;;;;;4841950;29;20049;-79
2021/01/19 06:02:16;;;;;;;12.93;7.13;;;5.80;99.90;;;;;;4842750;29;20029;-79
2021/01/19 06:04:49;;;;;;;12.25;7.40;;;5.90;99.90;;;;;;4855786;29;20449;-80
2021/01/19 06:07:18;;;;;;;13.05;7.15;;;5.90;99.90;;;;;;4824958;29;20083;-78
2021/01/19 06:09:45;;;;;;;15.38;7.07;;;6.00;99.90;;;;;;4841619;29;20072;-78
2021/01/19 06:12:12;;;;;;;9.07;7.35;;;6.00;99.90;;;;;;4853072;29;20038;-79
2021/01/19 06:14:38;;;;;;;10.23;7.30;;;6.00;99.90;;;;;;4841122;29;20053;-80
2021/01/19 06:17:04;;;;;;;13.55;6.38;;;6.00;99.90;;;;;;4844245;29;20454;-79
2021/01/19 06:19:31;;;;;;;13.65;6.80;;;6.00;99.90;;;;;;4848265;29;20026;-79
2021/01/19 06:21:58;;;;;;;12.43;7.15;;;6.00;99.90;;;;;;4842017;29;20034;-79
2021/01/19 06:24:34;;;;;;;8.60;6.85;;;6.00;99.90;;;;;;4858032;29;20078;-77
2021/01/19 06:27:01;;;;;;;13.65;6.90;;;6.10;99.90;;;;;;4845197;29;20120;-80
2021/01/19 06:29:28;;;;;;;8.52;6.00;;;6.10;99.90;;;;;;4847623;29;20041;-78
2021/01/19 06:31:56;;;;;;;9.82;6.68;;;6.10;99.90;;;;;;4844325;29;20026;-80
2021/01/19 06:34:29;;;;;;;11.00;6.35;;;6.10;99.90;;;;;;4860377;29;20400;-78
2021/01/19 06:36:56;;;;;;;11.77;6.28;;;6.20;99.90;;;;;;4860105;29;20302;-79
2021/01/19 06:39:31;;;;;;;13.18;5.45;;;6.20;99.90;;;;;;4844939;29;20018;-79
2021/01/19 06:42:06;;;;;;;10.38;6.63;;;6.20;99.90;;;;;;4860048;29;20069;-80
2021/01/19 06:44:41;;;;;;;12.02;5.97;;;6.20;99.90;;;;;;4844810;29;20041;-80
2021/01/19 06:47:07;;;;;;;9.25;6.00;;;6.20;99.90;;;;;;4845336;29;20548;-78
2021/01/19 06:49:38;;;;;;;7.47;4.80;;;6.30;99.90;;;;;;4843161;29;20042;-80
2021/01/19 06:52:06;;;;;;;6.15;5.55;;;6.30;99.90;;;;;;4849219;29;20472;-80
2021/01/19 06:54:41;;;;;;;10.93;5.13;;;6.30;99.90;;;;;;4844258;29;20042;-81
2021/01/19 06:57:22;;;;;;;10.48;5.80;;;6.40;99.90;;;;;;4845074;29;20142;-79
2021/01/19 07:00:02;;;;;;;9.05;4.70;;;6.40;99.90;;;;;;4844215;29;20083;-80
2021/01/19 07:02:35;;;;;;;8.40;4.82;;;6.40;99.90;;;;;;4859166;29;20021;-79
2021/01/19 07:05:15;;;;;;;6.47;5.38;;;6.40;99.90;;;;;;4845049;29;20030;-81
2021/01/19 07:08:08;;;;;;;8.98;4.88;;;6.50;99.90;;;;;;4845446;29;20029;-79
2021/01/19 07:10:39;;;;;;;6.85;4.50;;;6.50;99.90;;;;;;4834587;29;20031;-79
2021/01/19 07:13:08;;;;;;;7.20;4.95;;;6.50;99.90;;;;;;4858801;29;20432;-80
2021/01/19 07:16:02;;;;;;;7.78;4.65;;;6.50;99.90;;;;;;4841301;29;20026;-80
2021/01/19 07:19:16;;;;;;;8.40;4.53;;;6.50;99.90;;;;;;4859292;29;20171;-79
2021/01/19 07:21:58;;;;;;;8.95;4.90;;;6.60;99.90;;;;;;4860228;29;20046;-80
2021/01/19 07:24:39;;;;;;;7.15;3.85;;;6.60;99.90;;;;;;4860588;29;20045;-79
2021/01/19 07:27:08;;;;;;;4.60;3.30;;;6.60;99.90;;;;;;4842618;29;20034;-79
2021/01/19 07:29:33;;;;;;;3.50;3.20;;;6.70;99.90;;;;;;4845506;29;20498;-77
2021/01/19 07:32:09;;;;;;;6.75;3.65;;;6.70;99.90;;;;;;4846164;29;20034;-79
2021/01/19 07:34:38;;;;;;;4.35;3.20;;;6.80;99.90;;;;;;4846811;29;20075;-78
2021/01/19 07:37:04;;;;;;;3.78;2.95;;;6.80;99.90;;;;;;4847713;29;20033;-79
2021/01/19 07:39:34;;;;;;;6.05;3.33;;;6.80;99.90;;;;;;4860520;29;20033;-79
2021/01/19 07:42:14;;;;;;;4.43;2.88;;;6.80;99.90;;;;;;4859388;29;20026;-80
2021/01/19 07:44:42;;;;;;;5.25;3.10;;;6.90;99.90;;;;;;4832672;29;20395;-80
2021/01/19 07:47:15;;;;;;;7.05;2.90;;;7.00;99.90;;;;;;4816766;29;20476;-81
2021/01/19 07:49:42;;;;;;;3.50;2.65;;;7.00;99.90;;;;;;4844096;29;20403;-80
2021/01/19 07:52:17;;;;;;;7.82;3.10;;;7.10;99.90;;;;;;4860700;29;20030;-79
2021/01/19 07:54:42;;;;;;;4.78;2.55;;;7.00;99.90;;;;;;4832849;29;20046;-80
2021/01/19 07:57:16;;;;;;;8.30;3.25;;;7.10;99.90;;;;;;4860443;29;20033;-80
2021/01/19 07:59:43;;;;;;;4.80;3.40;;;7.10;99.90;;;;;;4854412;29;20022;-80
2021/01/19 08:02:20;;;;;;;9.45;2.50;;;7.20;99.90;;;;;;4859929;29;20113;-82
2021/01/19 08:04:46;;;;;;;4.72;2.13;;;7.20;99.90;;;;;;4846746;29;20038;-80
2021/01/19 08:07:14;;;;;;;7.70;3.05;;;7.20;99.90;;;;;;4847043;29;20037;-80
2021/01/19 08:09:41;;;;;;;6.55;3.00;;;7.20;99.90;;;;;;4846115;29;20022;-81
2021/01/19 08:12:12;;;;;;;4.13;3.17;;;7.20;99.90;;;;;;4846082;29;20049;-79
2021/01/19 08:14:40;;;;;;;6.43;3.10;;;7.20;99.90;;;;;;4861050;29;20034;-79
2021/01/19 08:17:07;;;;;;;3.55;3.25;;;7.20;99.90;;;;;;4860584;29;20070;-78
2021/01/19 08:19:37;;;;;;;6.72;4.53;;;7.20;99.90;;;;;;4846322;29;20025;-81
2021/01/19 08:22:03;;;;;;;3.30;2.67;;;7.20;99.90;;;;;;4859732;29;20503;-81
2021/01/19 08:24:29;;;;;;;5.38;3.15;;;7.20;99.90;;;;;;4858588;29;20026;-80
2021/01/19 08:26:56;;;;;;;9.43;3.35;;;7.20;99.90;;;;;;4846052;29;20392;-81
2021/01/19 08:29:23;;;;;;;5.15;2.90;;;7.30;99.90;;;;;;4855318;29;20095;-79
2021/01/19 08:31:56;;;;;;;4.13;2.88;;;7.30;99.90;;;;;;4842164;29;20041;-80
2021/01/19 08:34:25;;;;;;;6.15;2.75;;;7.30;99.90;;;;;;4857204;29;20037;-80
2021/01/19 08:36:51;;;;;;;6.18;3.10;;;7.30;99.90;;;;;;4858354;29;20038;-80
2021/01/19 08:39:18;;;;;;;4.07;2.63;;;7.40;99.90;;;;;;4858989;29;20120;-80
2021/01/19 08:41:46;;;;;;;5.85;2.90;;;7.40;99.90;;;;;;4849029;29;20026;-80
2021/01/19 08:44:13;;;;;;;6.22;2.53;;;7.50;99.90;;;;;;4844735;29;20034;-80
2021/01/19 08:46:39;;;;;;;3.75;2.80;;;7.50;99.90;;;;;;4859220;29;20041;-80
2021/01/19 08:49:11;;;;;;;7.90;2.60;;;7.50;99.90;;;;;;4861619;29;20442;-78
2021/01/19 08:51:41;;;;;;;6.60;3.20;;;7.50;99.90;;;;;;4859899;29;20153;-79
2021/01/19 08:54:08;;;;;;;10.70;3.00;;;7.60;99.90;;;;;;4856304;29;20058;-80
2021/01/19 08:56:39;;;;;;;6.75;2.88;;;7.60;99.90;;;;;;4859031;29;20034;-81
2021/01/19 08:59:04;;;;;;;4.50;2.90;;;7.70;99.90;;;;;;4858334;29;20034;-78
2021/01/19 09:01:45;;;;;;;3.70;2.40;;;7.70;99.90;;;;;;4844069;29;20082;-81
2021/01/19 09:04:11;;;;;;;6.95;4.05;;;7.70;99.90;;;;;;4844929;29;20038;-78
2021/01/19 09:06:36;;;;;;;5.30;2.90;;;7.70;99.90;;;;;;4857753;29;20041;-79
2021/01/19 09:09:02;;;;;;;3.30;2.65;;;7.70;99.90;;;;;;4857479;29;20411;-79
2021/01/19 09:11:30;;;;;;;7.05;3.33;;;7.70;99.90;;;;;;4857387;29;20403;-78
2021/01/19 09:14:09;;;;;;;;;;;7.80;99.90;;;;;;4857377;29;20030;-78
2021/01/19 09:16:39;;;;;;;2.28;1.92;;;7.80;99.90;;;;;;4856592;29;19913;-79
2021/01/19 09:19:07;;;;;;;4.43;2.30;;;7.80;99.90;;;;;;4859666;29;20491;-83
2021/01/19 09:21:33;;;;;;;4.60;2.60;;;7.80;99.90;;;;;;4843232;29;20038;-82
2021/01/19 09:24:00;;;;;;;3.53;2.10;;;7.90;99.90;;;;;;4853150;29;20124;-84
2021/01/19 09:26:26;;;;;;;2.95;2.50;;;7.90;99.90;;;;;;4860524;29;20029;-76
2021/01/19 09:28:52;;;;;;;2.60;2.40;;;7.90;99.90;;;;;;4862398;29;20448;-80
2021/01/19 09:31:18;;;;;;;3.40;2.35;;;8.00;99.90;;;;;;4845042;29;20041;-87
2021/01/19 09:33:52;;;;;;;2.78;2.42;;;8.00;99.90;;;;;;4846501;29;20053;-83
2021/01/19 09:36:18;;;;;;;4.95;2.72;;;8.10;99.90;;;;;;4841702;29;20047;-79
2021/01/19 09:38:49;;;;;;;4.15;2.45;;;8.10;99.90;;;;;;4859293;29;20041;-79
2021/01/19 09:41:28;;;;;;;4.05;3.00;;;8.10;99.90;;;;;;4859950;29;20050;-78
2021/01/19 09:43:57;;;;;;;4.45;2.67;;;8.10;99.90;;;;;;4842921;29;20026;-80
2021/01/19 09:46:25;;;;;;;3.42;2.75;;;8.20;99.90;;;;;;4858484;29;20046;-80
2021/01/19 09:48:54;;;;;;;4.45;2.47;;;8.20;99.90;;;;;;4845071;29;20511;-84
2021/01/19 09:51:27;;;;;;;4.03;2.42;;;8.20;99.90;;;;;;4841794;29;20542;-81
2021/01/19 09:53:55;;;;;;;3.38;2.38;;;8.20;99.90;;;;;;4841764;29;20448;-81
2021/01/19 09:56:20;;;;;;;4.40;2.53;;;8.30;99.90;;;;;;4860276;29;20112;-80
2021/01/19 09:58:46;;;;;;;3.35;2.60;;;8.40;99.90;;;;;;4842915;29;20306;-80
2021/01/19 10:01:25;;;;;;;6.10;3.03;;;8.40;99.90;;;;;;4855511;29;20174;-79
2021/01/19 10:03:51;;;;;;;7.90;2.58;;;8.40;99.90;;;;;;4861036;29;20050;-82
2021/01/19 10:06:25;;;;;;;4.53;2.80;;;8.50;99.90;;;;;;4843769;29;20032;-82
2021/01/19 10:08:52;;;;;;;6.07;3.50;;;8.50;99.90;;;;;;4840142;29;20136;-80
2021/01/19 10:11:55;;;;;;;4.03;3.20;;;8.50;99.90;;;;;;4860117;29;20107;-81
2021/01/19 10:14:20;;;;;;;6.10;4.20;;;8.60;99.90;;;;;;4843074;29;20046;-80
2021/01/19 10:16:48;;;;;;;7.20;3.28;;;8.60;99.90;;;;;;4844452;29;20181;-82
2021/01/19 10:19:25;;;;;;;4.03;3.40;;;8.60;99.90;;;;;;4853755;29;20057;-83
2021/01/19 10:21:53;;;;;;;7.43;3.67;;;8.70;99.90;;;;;;4842489;29;20049;-81
2021/01/19 10:24:19;;;;;;;4.95;3.40;;;8.80;99.90;;;;;;4857301;29;20038;-81
2021/01/19 10:27:06;;;;;;;4.32;2.78;;;8.90;99.90;;;;;;4843551;29;20026;-82
2021/01/19 10:29:36;;;;;;;8.88;3.42;;;8.90;99.90;;;;;;4858945;29;20066;-84
2021/01/19 10:32:05;;;;;;;4.53;2.72;;;9.00;99.90;;;;;;4843704;29;20099;-82
2021/01/19 10:34:35;;;;;;;10.45;3.47;;;9.10;99.90;;;;;;4846446;29;20034;-81
2021/01/19 10:37:02;;;;;;;16.08;3.03;;;9.30;99.90;;;;;;4859566;29;20050;-84
2021/01/19 10:39:30;;;;;;;9.20;2.83;;;9.40;99.90;;;;;;4860459;29;20140;-81
2021/01/19 10:41:57;;;;;;;10.13;3.15;;;9.50;99.90;;;;;;4844836;29;20505;-80
2021/01/19 10:44:24;;;;;;;16.25;3.03;;;9.60;99.90;;;;;;4861720;29;20125;-79
2021/01/19 10:47:02;;;;;;;7.22;2.33;;;9.70;99.90;;;;;;4845033;29;20459;-80
2021/01/19 10:49:32;;;;;;;14.52;3.90;;;9.80;99.90;;;;;;4861696;29;20033;-77
2021/01/19 10:51:58;;;;;;;12.07;2.22;;;9.80;99.90;;;;;;4843009;29;20030;-77
2021/01/19 10:54:25;;;;;;;10.73;2.75;;;9.90;99.90;;;;;;4856869;29;20580;-78
2021/01/19 10:57:06;;;;;;;3.67;1.50;;;10.00;99.90;;;;;;4857650;29;20045;-77
2021/01/19 10:59:33;;;;;;;11.65;2.15;;;9.90;99.90;;;;;;4857304;29;20494;-77
2021/01/19 11:01:59;;;;;;;10.40;2.00;;;9.90;99.90;;;;;;4834581;29;20034;-78
2021/01/19 11:04:25;;;;;;;5.95;2.72;;;10.00;99.90;;;;;;4835602;29;20037;-78
2021/01/19 11:06:50;;;;;;;11.82;2.10;;;10.00;99.90;;;;;;4845412;29;20121;-78
2021/01/19 11:09:17;;;;;;;13.32;2.58;;;10.00;99.90;;;;;;4826796;29;20543;-77
2021/01/19 11:11:43;;;;;;;7.57;2.83;;;10.00;99.90;;;;;;4849308;29;20202;-76
2021/01/19 11:14:10;;;;;;;10.77;2.20;;;10.00;99.90;;;;;;4844037;29;20070;-76
2021/01/19 11:16:43;;;;;;;9.93;2.50;;;10.10;99.90;;;;;;4829021;29;20046;-76
2021/01/19 11:19:14;;;;;;;11.07;1.73;;;10.10;99.90;;;;;;4853221;29;20049;-77
2021/01/19 11:21:42;;;;;;;9.77;1.77;;;10.10;99.90;;;;;;4851092;29;20034;-76
2021/01/19 11:24:09;;;;;;;11.52;1.50;;;10.10;99.90;;;;;;4850961;29;20041;-77
2021/01/19 11:26:39;;;;;;;12.93;2.67;;;10.20;99.90;;;;;;4843398;29;20480;-78
2021/01/19 11:29:09;;;;;;;10.35;1.67;;;10.20;99.90;;;;;;4835215;29;20347;-77
2021/01/19 11:31:35;;;;;;;9.15;2.15;;;10.20;99.90;;;;;;4842717;29;20056;-80
2021/01/19 11:34:03;;;;;;;11.50;2.92;;;10.30;99.90;;;;;;4843076;29;20059;-78
2021/01/19 11:36:34;;;;;;;10.45;3.05;;;10.40;99.90;;;;;;4844016;29;20030;-79
2021/01/19 11:39:00;;;;;;;8.40;1.98;;;10.40;99.90;;;;;;4842800;29;20112;-77
2021/01/19 11:41:27;;;;;;;14.70;2.53;;;10.40;99.90;;;;;;4829890;29;20129;-79
2021/01/19 11:43:54;;;;;;;10.85;2.22;;;10.40;99.90;;;;;;4842519;29;20026;-77
2021/01/19 11:46:40;;;;;;;12.15;3.75;;;10.40;99.90;;;;;;4843589;29;20029;-77
2021/01/19 11:49:09;;;;;;;10.38;1.90;;;10.50;99.90;;;;;;4842844;29;20391;-76
2021/01/19 11:51:38;;;;;;;9.05;2.40;;;10.50;99.90;;;;;;4843534;29;20133;-78
2021/01/19 11:54:08;;;;;;;14.90;2.17;;;10.40;99.90;;;;;;4833917;29;20117;-77
2021/01/19 11:56:39;;;;;;;9.05;2.35;;;10.40;99.90;;;;;;4862060;29;20033;-76
2021/01/19 11:59:08;;;;;;;4.05;1.83;;;10.40;99.90;;;;;;4859651;29;20037;-76
2021/01/19 12:01:34;;;;;;;16.00;2.17;;;10.50;99.90;;;;;;4862342;29;20026;-77
2021/01/19 12:04:00;;;;;;;11.00;2.63;;;10.50;99.90;;;;;;4847108;29;20506;-79
2021/01/19 12:06:26;;;;;;;22.38;3.50;;;10.60;99.90;;;;;;4861869;29;20053;-76
2021/01/19 12:08:52;;;;;;;19.83;3.42;;;10.50;99.90;;;;;;4861899;29;20037;-76
2021/01/19 12:11:18;;;;;;;17.13;3.15;;;10.50;99.90;;;;;;4861177;29;20049;-77
2021/01/19 12:13:45;;;;;;;19.17;2.55;;;10.60;99.90;;;;;;4847404;29;20045;-76
2021/01/19 12:16:11;;;;;;;11.65;2.05;;;10.60;99.90;;;;;;4861852;29;20509;-76
2021/01/19 12:18:39;;;;;;;18.33;3.17;;;10.60;99.90;;;;;;4862564;29;20029;-75
2021/01/19 12:21:08;;;;;;;18.13;3.47;;;10.60;99.90;;;;;;4846602;29;20025;-75
2021/01/19 12:23:35;;;;;;;19.25;3.83;;;10.70;99.90;;;;;;4861870;29;20072;-75
2021/01/19 12:26:00;;;;;;;12.52;2.67;;;10.70;99.90;;;;;;4863295;29;20127;-76
2021/01/19 12:28:26;;;;;;;11.93;2.47;;;10.80;99.90;;;;;;4847057;29;20059;-75
2021/01/19 12:30:53;;;;;;;16.15;2.00;;;10.80;99.90;;;;;;4844530;29;20093;-76
2021/01/19 12:33:20;;;;;;;5.35;1.90;;;10.80;99.90;;;;;;4864404;29;20041;-77
2021/01/19 12:35:47;;;;;;;14.80;4.00;;;10.80;99.90;;;;;;4864304;29;20057;-76
2021/01/19 12:38:13;;;;;;;17.48;3.10;;;10.80;99.90;;;;;;4863469;29;20391;-75
2021/01/19 12:40:39;;;;;;;14.30;3.40;;;10.80;99.90;;;;;;4862423;29;20037;-75
2021/01/19 12:43:05;;;;;;;13.57;3.17;;;10.80;99.90;;;;;;4863909;29;20537;-75
2021/01/19 12:45:31;;;;;;;12.85;2.90;;;10.90;99.90;;;;;;4863846;29;20033;-77
2021/01/19 12:47:56;;;;;;;12.32;2.40;;;10.90;99.90;;;;;;4864177;29;20033;-75
2021/01/19 12:50:22;;;;;;;29.42;4.03;;;10.80;99.90;;;;;;4863325;29;20038;-75
2021/01/19 12:52:48;;;;;;;21.00;2.65;;;10.80;99.90;;;;;;4849378;29;20493;-77
2021/01/19 12:55:14;;;;;;;29.30;4.50;;;10.80;99.90;;;;;;4855377;29;20046;-74
2021/01/19 12:57:39;;;;;;;13.48;3.03;;;10.80;99.90;;;;;;4840091;29;20030;-75
2021/01/19 13:00:08;;;;;;;11.38;2.42;;;10.70;99.90;;;;;;4859586;29;20410;-76
2021/01/19 13:02:34;;;;;;;17.63;2.88;;;10.80;99.90;;;;;;4857821;29;20094;-77
2021/01/19 13:05:02;;;;;;;14.32;2.90;;;10.80;99.90;;;;;;4857709;29;20030;-75